createdAt,value
2017-09-27T00:00:40.401Z,125.28
2017-09-27T00:01:43.693Z,127.28
2017-09-27T00:02:46.139Z,131.68
2017-09-27T00:03:48.609Z,130.23
2017-09-27T00:04:51.129Z,136.75
2017-09-27T00:05:53.623Z,130.77
2017-09-27T00:06:56.190Z,125.38
2017-09-27T00:07:58.824Z,118.87
2017-09-27T00:09:01.290Z,125.57
2017-09-27T00:10:03.858Z,126.28
2017-09-27T00:11:07.088Z,120.07
2017-09-27T00:12:10.444Z,116.85
2017-09-27T00:13:13.737Z,113.60
2017-09-27T00:14:16.220Z,128.02
2017-09-27T00:15:18.751Z,124.45
2017-09-27T00:16:21.381Z,133.60
2017-09-27T00:17:23.943Z,133.40
2017-09-27T00:18:26.464Z,129.82
2017-09-27T00:19:29.004Z,126.72
2017-09-27T00:20:31.468Z,117.90
2017-09-27T00:21:33.964Z,131.23
2017-09-27T00:22:36.430Z,132.48
2017-09-27T00:23:38.960Z,135.10
2017-09-27T00:24:41.474Z,124.93
2017-09-27T00:25:44.016Z,129.10
2017-09-27T00:26:46.532Z,133.23
2017-09-27T00:27:49.062Z,130.40
2017-09-27T00:28:51.642Z,139.37
2017-09-27T00:29:54.119Z,126.97
2017-09-27T00:30:56.623Z,145.40
2017-09-27T00:31:59.874Z,126.72
2017-09-27T00:33:02.412Z,125.18
2017-09-27T00:34:04.897Z,135.02
2017-09-27T00:35:07.417Z,136.12
2017-09-27T00:36:09.881Z,133.25
2017-09-27T00:37:12.356Z,131.37
2017-09-27T00:38:14.974Z,128.25
2017-09-27T00:39:17.482Z,135.15
2017-09-27T00:40:20.023Z,128.05
2017-09-27T00:41:22.509Z,136.48
2017-09-27T00:42:24.991Z,128.38
2017-09-27T00:43:27.515Z,141.20
2017-09-27T00:44:29.985Z,132.25
2017-09-27T00:45:32.497Z,135.85
2017-09-27T00:46:35.798Z,149.52
2017-09-27T00:47:38.703Z,128.52
2017-09-27T00:48:41.204Z,135.77
2017-09-27T00:49:44.474Z,133.70
2017-09-27T00:50:46.992Z,142.13
2017-09-27T00:51:49.610Z,147.75
2017-09-27T00:52:52.074Z,137.73
2017-09-27T00:53:54.539Z,139.00
2017-09-27T00:54:59.192Z,132.77
2017-09-27T00:56:03.664Z,140.18
2017-09-27T00:57:06.262Z,132.07
2017-09-27T00:58:08.767Z,161.85
2017-09-27T00:59:11.272Z,148.55
2017-09-27T01:00:13.730Z,141.07
2017-09-27T01:01:16.238Z,150.30
2017-09-27T01:02:18.779Z,132.85
2017-09-27T01:03:21.386Z,142.02
2017-09-27T01:04:23.870Z,145.02
2017-09-27T01:05:26.443Z,152.10
2017-09-27T01:06:28.914Z,154.73
2017-09-27T01:07:31.387Z,157.37
2017-09-27T01:08:33.896Z,159.02
2017-09-27T01:09:37.134Z,160.60
2017-09-27T01:10:40.405Z,147.35
2017-09-27T01:11:42.884Z,158.65
2017-09-27T01:12:45.354Z,155.73
2017-09-27T01:13:47.962Z,146.05
2017-09-27T01:14:51.191Z,157.98
2017-09-27T01:15:54.446Z,156.90
2017-09-27T01:16:57.674Z,157.80
2017-09-27T01:18:00.927Z,146.95
2017-09-27T01:19:04.197Z,149.85
2017-09-27T01:20:06.671Z,149.80
2017-09-27T01:21:09.246Z,157.12
2017-09-27T01:22:11.722Z,158.35
2017-09-27T01:23:14.289Z,149.43
2017-09-27T01:24:16.798Z,149.90
2017-09-27T01:25:20.072Z,145.55
2017-09-27T01:26:22.561Z,146.98
2017-09-27T01:27:25.799Z,151.30
2017-09-27T01:28:29.052Z,147.60
2017-09-27T01:29:32.381Z,161.30
2017-09-27T01:30:34.931Z,149.62
2017-09-27T01:31:37.387Z,150.05
2017-09-27T01:32:39.851Z,151.80
2017-09-27T01:33:42.336Z,155.90
2017-09-27T01:34:44.835Z,144.18
2017-09-27T01:35:47.301Z,152.30
2017-09-27T01:36:49.787Z,141.35
2017-09-27T01:37:52.315Z,145.05
2017-09-27T01:38:54.819Z,138.90
2017-09-27T01:39:58.061Z,136.93
2017-09-27T01:41:01.300Z,146.13
2017-09-27T01:42:04.532Z,147.73
2017-09-27T01:43:07.100Z,144.98
2017-09-27T01:44:09.575Z,155.50
2017-09-27T01:45:12.037Z,146.95
2017-09-27T01:46:15.258Z,148.75
2017-09-27T01:47:17.758Z,158.40
2017-09-27T01:48:20.278Z,164.50
2017-09-27T01:49:22.769Z,156.45
2017-09-27T01:50:25.230Z,151.68
2017-09-27T01:51:27.727Z,150.15
2017-09-27T01:52:30.227Z,150.85
2017-09-27T01:53:32.701Z,157.45
2017-09-27T01:54:35.171Z,152.80
2017-09-27T01:55:38.423Z,148.80
2017-09-27T01:56:40.928Z,156.95
2017-09-27T01:57:43.598Z,138.52
2017-09-27T01:58:46.278Z,146.90
2017-09-27T01:59:48.762Z,152.62
2017-09-27T02:00:51.259Z,146.90
2017-09-27T02:01:53.732Z,154.95
2017-09-27T02:02:56.210Z,149.25
2017-09-27T02:03:58.706Z,164.50
2017-09-27T02:05:01.162Z,151.50
2017-09-27T02:06:03.650Z,163.73
2017-09-27T02:07:06.239Z,149.02
2017-09-27T02:08:08.721Z,148.07
2017-09-27T02:09:11.986Z,156.90
2017-09-27T02:10:14.469Z,151.63
2017-09-27T02:11:16.956Z,162.43
2017-09-27T02:12:19.436Z,152.77
2017-09-27T02:13:22.657Z,161.12
2017-09-27T02:14:25.171Z,156.80
2017-09-27T02:15:27.637Z,158.48
2017-09-27T02:16:30.175Z,143.40
2017-09-27T02:17:32.695Z,135.00
2017-09-27T02:18:35.153Z,168.37
2017-09-27T02:19:37.687Z,155.20
2017-09-27T02:20:40.174Z,153.98
2017-09-27T02:21:42.641Z,151.63
2017-09-27T02:22:45.101Z,158.75
2017-09-27T02:23:48.362Z,150.07
2017-09-27T02:24:50.850Z,159.35
2017-09-27T02:25:53.311Z,156.37
2017-09-27T02:26:55.851Z,138.73
2017-09-27T02:27:58.487Z,154.43
2017-09-27T02:29:00.968Z,140.35
2017-09-27T02:30:04.328Z,149.20
2017-09-27T02:31:07.569Z,149.18
2017-09-27T02:32:10.834Z,143.87
2017-09-27T02:33:13.328Z,143.95
2017-09-27T02:34:16.611Z,145.73
2017-09-27T02:35:19.107Z,147.68
2017-09-27T02:36:22.376Z,147.62
2017-09-27T02:37:24.853Z,141.75
2017-09-27T02:38:27.339Z,142.07
2017-09-27T02:39:29.840Z,142.60
2017-09-27T02:40:32.308Z,150.77
2017-09-27T02:41:34.786Z,141.68
2017-09-27T02:42:37.416Z,142.82
2017-09-27T02:43:39.872Z,140.45
2017-09-27T02:44:42.360Z,136.02
2017-09-27T02:45:44.844Z,149.38
2017-09-27T02:46:47.346Z,151.68
2017-09-27T02:47:49.843Z,146.40
2017-09-27T02:48:52.546Z,144.60
2017-09-27T02:49:55.927Z,135.32
2017-09-27T02:50:58.743Z,150.90
2017-09-27T02:52:01.213Z,141.43
2017-09-27T02:53:03.698Z,135.50
2017-09-27T02:54:06.243Z,146.32
2017-09-27T02:55:08.752Z,144.87
2017-09-27T02:56:11.291Z,149.70
2017-09-27T02:57:13.770Z,158.00
2017-09-27T02:58:17.014Z,142.95
2017-09-27T02:59:19.483Z,141.82
2017-09-27T03:00:21.995Z,144.23
2017-09-27T03:01:24.479Z,147.10
2017-09-27T03:02:26.986Z,144.57
2017-09-27T03:03:29.453Z,150.50
2017-09-27T03:04:32.685Z,138.68
2017-09-27T03:05:35.946Z,144.48
2017-09-27T03:06:38.419Z,147.70
2017-09-27T03:07:40.893Z,150.12
2017-09-27T03:08:44.154Z,147.98
2017-09-27T03:09:46.637Z,164.95
2017-09-27T03:10:49.123Z,154.98
2017-09-27T03:11:51.593Z,151.57
2017-09-27T03:12:54.913Z,165.68
2017-09-27T03:13:57.409Z,159.75
2017-09-27T03:14:59.881Z,149.52
2017-09-27T03:16:03.150Z,161.98
2017-09-27T03:17:06.430Z,158.00
2017-09-27T03:18:08.932Z,157.65
2017-09-27T03:19:11.399Z,170.55
2017-09-27T03:20:13.954Z,161.05
2017-09-27T03:21:17.190Z,163.50
2017-09-27T03:22:20.540Z,161.52
2017-09-27T03:23:23.919Z,147.73
2017-09-27T03:24:26.390Z,166.45
2017-09-27T03:25:28.933Z,160.93
2017-09-27T03:26:31.390Z,168.73
2017-09-27T03:27:33.858Z,160.18
2017-09-27T03:28:36.323Z,160.45
2017-09-27T03:29:38.786Z,168.57
2017-09-27T03:30:41.447Z,162.50
2017-09-27T03:31:43.914Z,161.82
2017-09-27T03:32:46.415Z,161.62
2017-09-27T03:33:50.095Z,160.45
2017-09-27T03:34:52.559Z,153.12
2017-09-27T03:35:55.151Z,167.68
2017-09-27T03:36:57.663Z,162.62
2017-09-27T03:38:00.181Z,151.30
2017-09-27T03:39:03.428Z,152.85
2017-09-27T03:40:06.670Z,153.98
2017-09-27T03:41:09.918Z,150.95
2017-09-27T03:42:12.416Z,162.90
2017-09-27T03:43:15.650Z,152.35
2017-09-27T03:44:18.125Z,149.57
2017-09-27T03:45:20.850Z,163.18
2017-09-27T03:46:23.345Z,170.15
2017-09-27T03:47:26.701Z,158.70
2017-09-27T03:48:29.195Z,163.48
2017-09-27T03:49:31.676Z,167.60
2017-09-27T03:50:34.172Z,154.43
2017-09-27T03:51:37.425Z,166.12
2017-09-27T03:52:39.946Z,172.68
2017-09-27T03:53:43.187Z,156.95
2017-09-27T03:54:46.523Z,168.05
2017-09-27T03:55:49.753Z,153.90
2017-09-27T03:56:52.988Z,153.90
2017-09-27T03:57:55.499Z,155.18
2017-09-27T03:58:58.011Z,169.13
2017-09-27T04:00:00.513Z,162.90
2017-09-27T04:01:03.006Z,163.77
2017-09-27T04:02:06.244Z,165.37
2017-09-27T04:03:08.707Z,168.48
2017-09-27T04:04:11.555Z,156.65
2017-09-27T04:05:14.168Z,169.90
2017-09-27T04:06:16.632Z,162.43
2017-09-27T04:07:19.103Z,159.60
2017-09-27T04:08:21.571Z,154.63
2017-09-27T04:09:24.038Z,156.95
2017-09-27T04:10:27.377Z,183.37
2017-09-27T04:11:30.656Z,168.68
2017-09-27T04:12:33.148Z,166.77
2017-09-27T04:13:36.402Z,163.45
2017-09-27T04:14:39.373Z,167.37
2017-09-27T04:15:41.881Z,165.37
2017-09-27T04:16:44.730Z,168.40
2017-09-27T04:17:47.214Z,172.55
2017-09-27T04:18:49.674Z,171.55
2017-09-27T04:19:52.147Z,167.02
2017-09-27T04:20:55.418Z,171.45
2017-09-27T04:21:57.893Z,166.12
2017-09-27T04:23:00.367Z,169.23
2017-09-27T04:24:02.843Z,166.30
2017-09-27T04:25:05.346Z,158.52
2017-09-27T04:26:07.842Z,165.12
2017-09-27T04:27:10.326Z,169.05
2017-09-27T04:28:12.902Z,171.93
2017-09-27T04:29:15.364Z,172.55
2017-09-27T04:30:17.828Z,180.52
2017-09-27T04:31:21.086Z,169.25
2017-09-27T04:32:23.559Z,164.95
2017-09-27T04:33:26.065Z,158.68
2017-09-27T04:34:28.534Z,158.18
2017-09-27T04:35:31.854Z,173.35
2017-09-27T04:36:35.024Z,164.20
2017-09-27T04:37:38.281Z,168.37
2017-09-27T04:38:40.793Z,178.60
2017-09-27T04:39:44.074Z,170.90
2017-09-27T04:40:46.550Z,180.75
2017-09-27T04:41:49.822Z,171.73
2017-09-27T04:42:52.297Z,197.87
2017-09-27T04:43:54.870Z,179.50
2017-09-27T04:44:58.218Z,178.27
2017-09-27T04:46:00.714Z,180.02
2017-09-27T04:47:03.186Z,188.87
2017-09-27T04:48:05.654Z,197.30
2017-09-27T04:49:08.218Z,179.68
2017-09-27T04:50:10.698Z,183.15
2017-09-27T04:51:13.279Z,185.12
2017-09-27T04:52:15.754Z,190.43
2017-09-27T04:53:18.938Z,183.20
2017-09-27T04:54:21.430Z,179.38
2017-09-27T04:55:23.903Z,169.43
2017-09-27T04:56:26.429Z,179.32
2017-09-27T04:57:28.965Z,170.75
2017-09-27T04:58:31.424Z,176.27
2017-09-27T04:59:33.885Z,175.50
2017-09-27T05:00:36.395Z,179.63
2017-09-27T05:01:39.618Z,172.37
2017-09-27T05:02:42.090Z,174.87
2017-09-27T05:03:44.674Z,192.15
2017-09-27T05:04:47.178Z,174.30
2017-09-27T05:05:49.771Z,180.60
2017-09-27T05:06:52.333Z,180.77
2017-09-27T05:07:54.795Z,192.90
2017-09-27T05:08:58.412Z,196.50
2017-09-27T05:10:00.881Z,192.40
2017-09-27T05:11:04.136Z,193.68
2017-09-27T05:12:06.622Z,195.70
2017-09-27T05:13:09.090Z,193.15
2017-09-27T05:14:11.569Z,190.98
2017-09-27T05:15:14.034Z,199.48
2017-09-27T05:16:16.592Z,179.63
2017-09-27T05:17:19.084Z,179.73
2017-09-27T05:18:21.534Z,190.62
2017-09-27T05:19:24.031Z,198.18
2017-09-27T05:20:26.501Z,198.30
2017-09-27T05:21:29.015Z,199.23
2017-09-27T05:22:31.627Z,204.15
2017-09-27T05:23:34.097Z,192.43
2017-09-27T05:24:38.094Z,198.30
2017-09-27T05:25:40.566Z,176.98
2017-09-27T05:26:43.068Z,175.65
2017-09-27T05:27:45.545Z,191.05
2017-09-27T05:28:48.786Z,204.05
2017-09-27T05:29:52.028Z,199.70
2017-09-27T05:30:55.310Z,199.60
2017-09-27T05:31:58.558Z,201.07
2017-09-27T05:33:01.039Z,179.40
2017-09-27T05:34:04.290Z,198.18
2017-09-27T05:35:07.546Z,183.40
2017-09-27T05:36:10.027Z,184.82
2017-09-27T05:37:12.644Z,185.05
2017-09-27T05:38:15.107Z,185.98
2017-09-27T05:39:18.380Z,187.20
2017-09-27T05:40:20.848Z,199.45
2017-09-27T05:41:23.312Z,204.35
2017-09-27T05:42:26.671Z,213.60
2017-09-27T05:43:29.164Z,212.50
2017-09-27T05:44:31.674Z,223.55
2017-09-27T05:45:34.165Z,204.38
2017-09-27T05:46:36.656Z,195.27
2017-09-27T05:47:39.894Z,193.65
2017-09-27T05:48:43.131Z,215.20
2017-09-27T05:49:46.398Z,200.20
2017-09-27T05:50:48.922Z,213.93
2017-09-27T05:51:51.439Z,197.57
2017-09-27T05:52:54.674Z,204.73
2017-09-27T05:53:57.904Z,197.45
2017-09-27T05:55:01.148Z,187.27
2017-09-27T05:56:04.423Z,182.98
2017-09-27T05:57:06.938Z,212.48
2017-09-27T05:58:10.259Z,205.48
2017-09-27T05:59:12.984Z,189.20
2017-09-27T06:00:15.459Z,217.70
2017-09-27T06:01:17.968Z,202.15
2017-09-27T06:02:20.448Z,201.45
2017-09-27T06:03:22.994Z,191.65
2017-09-27T06:04:26.374Z,209.57
2017-09-27T06:05:28.838Z,194.45
2017-09-27T06:06:31.322Z,197.02
2017-09-27T06:07:33.791Z,211.40
2017-09-27T06:08:36.272Z,198.57
2017-09-27T06:09:38.760Z,199.82
2017-09-27T06:10:42.029Z,183.95
2017-09-27T06:11:44.510Z,197.32
2017-09-27T06:12:47.065Z,187.00
2017-09-27T06:13:50.315Z,187.32
2017-09-27T06:14:53.666Z,205.48
2017-09-27T06:15:56.146Z,207.52
2017-09-27T06:16:58.727Z,198.38
2017-09-27T06:18:01.206Z,191.60
2017-09-27T06:19:03.702Z,199.73
2017-09-27T06:20:06.934Z,200.18
2017-09-27T06:21:09.508Z,203.88
2017-09-27T06:22:12.070Z,188.37
2017-09-27T06:23:14.617Z,199.87
2017-09-27T06:24:17.112Z,186.00
2017-09-27T06:25:19.594Z,171.77
2017-09-27T06:26:22.075Z,187.62
2017-09-27T06:27:24.597Z,181.63
2017-09-27T06:28:27.060Z,195.40
2017-09-27T06:29:29.516Z,190.60
2017-09-27T06:30:32.803Z,191.30
2017-09-27T06:31:35.302Z,190.45
2017-09-27T06:32:37.792Z,182.23
2017-09-27T06:33:40.257Z,181.32
2017-09-27T06:34:42.724Z,189.13
2017-09-27T06:35:45.234Z,193.80
2017-09-27T06:36:47.717Z,189.37
2017-09-27T06:37:50.982Z,189.25
2017-09-27T06:38:53.891Z,191.23
2017-09-27T06:39:57.157Z,181.87
2017-09-27T06:41:00.049Z,191.48
2017-09-27T06:42:02.559Z,190.88
2017-09-27T06:43:05.019Z,191.88
2017-09-27T06:44:08.336Z,190.52
2017-09-27T06:45:10.914Z,191.07
2017-09-27T06:46:13.421Z,183.35
2017-09-27T06:47:16.706Z,181.65
2017-09-27T06:48:19.209Z,194.68
2017-09-27T06:49:21.777Z,178.48
2017-09-27T06:50:24.258Z,191.75
2017-09-27T06:51:26.755Z,188.15
2017-09-27T06:52:30.023Z,184.18
2017-09-27T06:53:32.508Z,175.48
2017-09-27T06:54:35.070Z,162.32
2017-09-27T06:55:37.535Z,179.23
2017-09-27T06:56:40.005Z,180.63
2017-09-27T06:57:43.289Z,170.57
2017-09-27T06:58:45.742Z,181.63
2017-09-27T06:59:48.217Z,192.23
2017-09-27T07:00:50.745Z,180.52
2017-09-27T07:01:53.266Z,192.65
2017-09-27T07:02:55.770Z,172.98
2017-09-27T07:03:58.244Z,198.98
2017-09-27T07:05:00.708Z,181.90
2017-09-27T07:06:03.275Z,176.50
2017-09-27T07:07:05.757Z,178.55
2017-09-27T07:08:08.310Z,177.87
2017-09-27T07:09:11.543Z,161.88
2017-09-27T07:10:15.516Z,174.62
2017-09-27T07:11:18.773Z,166.77
2017-09-27T07:12:21.289Z,165.75
2017-09-27T07:13:24.563Z,161.10
2017-09-27T07:14:27.232Z,169.60
2017-09-27T07:15:29.933Z,175.05
2017-09-27T07:16:32.441Z,176.07
2017-09-27T07:17:34.902Z,167.50
2017-09-27T07:18:37.418Z,161.68
2017-09-27T07:19:39.887Z,167.82
2017-09-27T07:20:42.362Z,163.75
2017-09-27T07:21:44.843Z,179.27
2017-09-27T07:22:47.326Z,176.30
2017-09-27T07:23:49.790Z,164.05
2017-09-27T07:24:52.290Z,157.25
2017-09-27T07:25:55.615Z,168.85
2017-09-27T07:26:58.087Z,157.90
2017-09-27T07:28:00.568Z,155.15
2017-09-27T07:29:03.040Z,167.57
2017-09-27T07:30:05.538Z,168.02
2017-09-27T07:31:08.781Z,149.55
2017-09-27T07:32:12.024Z,156.48
2017-09-27T07:33:15.268Z,157.65
2017-09-27T07:34:18.528Z,155.82
2017-09-27T07:35:21.893Z,153.15
2017-09-27T07:36:24.361Z,154.73
2017-09-27T07:37:26.831Z,143.55
2017-09-27T07:38:29.296Z,159.25
2017-09-27T07:39:31.820Z,156.77
2017-09-27T07:40:34.301Z,145.52
2017-09-27T07:41:36.781Z,150.55
2017-09-27T07:42:39.255Z,146.25
2017-09-27T07:43:41.814Z,166.35
2017-09-27T07:44:44.274Z,144.50
2017-09-27T07:45:47.518Z,141.62
2017-09-27T07:46:50.757Z,147.32
2017-09-27T07:47:53.306Z,146.07
2017-09-27T07:48:55.846Z,140.30
2017-09-27T07:49:58.364Z,139.95
2017-09-27T07:51:00.831Z,140.20
2017-09-27T07:52:04.143Z,136.07
2017-09-27T07:53:06.613Z,132.63
2017-09-27T07:54:09.118Z,138.18
2017-09-27T07:55:11.609Z,135.57
2017-09-27T07:56:14.073Z,139.68
2017-09-27T07:57:16.552Z,134.40
2017-09-27T07:58:19.029Z,141.20
2017-09-27T07:59:21.601Z,145.80
2017-09-27T08:00:24.822Z,145.10
2017-09-27T08:01:28.063Z,130.68
2017-09-27T08:02:31.297Z,145.90
2017-09-27T08:03:33.886Z,138.48
2017-09-27T08:04:36.940Z,143.30
2017-09-27T08:05:39.538Z,146.60
2017-09-27T08:06:42.222Z,140.98
2017-09-27T08:07:44.688Z,138.55
2017-09-27T08:08:47.201Z,137.60
2017-09-27T08:09:49.726Z,140.70
2017-09-27T08:10:52.204Z,144.32
2017-09-27T08:11:54.701Z,144.85
2017-09-27T08:12:57.313Z,144.75
2017-09-27T08:13:59.802Z,155.37
2017-09-27T08:15:03.048Z,139.75
2017-09-27T08:16:05.677Z,144.87
2017-09-27T08:17:08.141Z,146.77
2017-09-27T08:18:10.655Z,149.07
2017-09-27T08:19:13.176Z,162.62
2017-09-27T08:20:16.416Z,159.52
2017-09-27T08:21:19.685Z,157.70
2017-09-27T08:22:22.162Z,150.20
2017-09-27T08:23:25.397Z,161.43
2017-09-27T08:24:27.966Z,164.60
2017-09-27T08:25:30.429Z,148.90
2017-09-27T08:26:32.965Z,155.23
2017-09-27T08:27:35.425Z,156.00
2017-09-27T08:28:38.678Z,156.87
2017-09-27T08:29:41.150Z,161.95
2017-09-27T08:30:43.642Z,159.68
2017-09-27T08:31:46.268Z,156.80
2017-09-27T08:32:48.770Z,142.87
2017-09-27T08:33:52.017Z,166.25
2017-09-27T08:34:55.266Z,135.90
2017-09-27T08:35:57.750Z,149.02
2017-09-27T08:37:00.242Z,147.52
2017-09-27T08:38:02.838Z,151.82
2017-09-27T08:39:05.326Z,155.73
2017-09-27T08:40:09.305Z,157.60
2017-09-27T08:41:12.614Z,144.35
2017-09-27T08:42:15.093Z,142.05
2017-09-27T08:43:17.638Z,141.05
2017-09-27T08:44:20.155Z,130.15
2017-09-27T08:45:22.638Z,131.35
2017-09-27T08:46:25.143Z,138.48
2017-09-27T08:47:27.602Z,142.40
2017-09-27T08:48:30.871Z,145.20
2017-09-27T08:49:33.342Z,136.85
2017-09-27T08:50:35.814Z,148.90
2017-09-27T08:51:38.325Z,138.25
2017-09-27T08:52:41.553Z,133.90
2017-09-27T08:53:44.015Z,127.80
2017-09-27T08:54:46.484Z,133.65
2017-09-27T08:55:48.963Z,136.27
2017-09-27T08:56:51.486Z,131.75
2017-09-27T08:57:54.026Z,126.43
2017-09-27T08:58:56.508Z,138.02
2017-09-27T08:59:59.755Z,133.27
2017-09-27T09:01:03.012Z,129.63
2017-09-27T09:02:05.518Z,129.80
2017-09-27T09:03:08.767Z,128.98
2017-09-27T09:04:11.995Z,126.15
2017-09-27T09:05:14.471Z,134.80
2017-09-27T09:06:16.940Z,120.80
2017-09-27T09:07:19.518Z,117.18
2017-09-27T09:08:22.012Z,128.05
2017-09-27T09:09:25.369Z,122.00
2017-09-27T09:10:27.864Z,132.98
2017-09-27T09:11:30.342Z,119.60
2017-09-27T09:12:32.852Z,113.88
2017-09-27T09:13:35.545Z,124.78
2017-09-27T09:14:38.078Z,132.02
2017-09-27T09:15:40.559Z,127.30
2017-09-27T09:16:43.039Z,114.80
2017-09-27T09:17:46.271Z,134.70
2017-09-27T09:18:49.630Z,118.72
2017-09-27T09:19:52.875Z,105.55
2017-09-27T09:20:56.121Z,127.22
2017-09-27T09:21:58.604Z,115.62
2017-09-27T09:23:01.073Z,116.95
2017-09-27T09:24:04.360Z,117.05
2017-09-27T09:25:06.823Z,122.93
2017-09-27T09:26:10.068Z,127.22
2017-09-27T09:27:13.313Z,108.60
2017-09-27T09:28:16.548Z,132.95
2017-09-27T09:29:19.839Z,121.07
2017-09-27T09:30:22.352Z,125.43
2017-09-27T09:31:25.237Z,117.20
2017-09-27T09:32:27.800Z,110.82
2017-09-27T09:33:30.515Z,108.18
2017-09-27T09:34:33.792Z,110.20
2017-09-27T09:35:36.258Z,110.68
2017-09-27T09:36:39.534Z,116.28
2017-09-27T09:37:42.538Z,113.07
2017-09-27T09:38:45.083Z,106.60
2017-09-27T09:39:48.358Z,116.37
2017-09-27T09:40:50.841Z,104.85
2017-09-27T09:41:54.097Z,114.97
2017-09-27T09:42:57.361Z,104.50
2017-09-27T09:43:59.835Z,106.30
2017-09-27T09:45:02.415Z,104.87
2017-09-27T09:46:05.497Z,97.10
2017-09-27T09:47:08.079Z,111.28
2017-09-27T09:48:10.554Z,102.70
2017-09-27T09:49:13.026Z,110.43
2017-09-27T09:50:15.557Z,105.63
2017-09-27T09:51:18.032Z,104.30
2017-09-27T09:52:20.526Z,109.72
2017-09-27T09:53:23.014Z,118.72
2017-09-27T09:54:26.275Z,108.20
2017-09-27T09:55:28.762Z,101.93
2017-09-27T09:56:31.246Z,104.25
2017-09-27T09:57:33.789Z,95.30
2017-09-27T09:58:36.276Z,90.97
2017-09-27T09:59:38.742Z,98.50
2017-09-27T10:00:41.198Z,97.22
2017-09-27T10:01:43.751Z,113.75
2017-09-27T10:02:46.238Z,87.07
2017-09-27T10:03:49.517Z,90.45
2017-09-27T10:04:52.032Z,90.05
2017-09-27T10:05:55.277Z,93.20
2017-09-27T10:06:57.786Z,77.85
2017-09-27T10:08:01.074Z,90.62
2017-09-27T10:09:03.537Z,76.87
2017-09-27T10:10:06.148Z,90.40
2017-09-27T10:11:08.607Z,83.65
2017-09-27T10:12:11.942Z,84.22
2017-09-27T10:13:15.220Z,80.07
2017-09-27T10:14:17.690Z,86.40
2017-09-27T10:15:20.162Z,89.07
2017-09-27T10:16:22.641Z,91.20
2017-09-27T10:17:25.127Z,76.75
2017-09-27T10:18:27.643Z,79.62
2017-09-27T10:19:30.136Z,74.15
2017-09-27T10:20:32.625Z,83.05
2017-09-27T10:21:35.139Z,79.30
2017-09-27T10:22:37.617Z,79.43
2017-09-27T10:23:40.851Z,79.40
2017-09-27T10:24:43.410Z,77.30
2017-09-27T10:25:45.946Z,77.45
2017-09-27T10:26:48.615Z,83.18
2017-09-27T10:27:51.117Z,80.93
2017-09-27T10:28:53.603Z,87.05
2017-09-27T10:29:56.834Z,69.37
2017-09-27T10:31:00.063Z,70.55
2017-09-27T10:32:02.632Z,70.55
2017-09-27T10:33:05.155Z,75.35
2017-09-27T10:34:07.642Z,62.88
2017-09-27T10:35:10.195Z,65.40
2017-09-27T10:36:13.439Z,67.37
2017-09-27T10:37:16.778Z,75.05
2017-09-27T10:38:20.038Z,65.22
2017-09-27T10:39:22.500Z,63.20
2017-09-27T10:40:24.962Z,68.18
2017-09-27T10:41:28.238Z,58.53
2017-09-27T10:42:30.758Z,69.15
2017-09-27T10:43:33.242Z,70.05
2017-09-27T10:44:35.717Z,60.65
2017-09-27T10:45:38.209Z,61.63
2017-09-27T10:46:41.455Z,64.75
2017-09-27T10:47:44.714Z,63.72
2017-09-27T10:48:47.207Z,60.10
2017-09-27T10:49:50.518Z,59.05
2017-09-27T10:50:53.101Z,62.45
2017-09-27T10:51:56.334Z,54.38
2017-09-27T10:52:59.578Z,49.97
2017-09-27T10:54:02.831Z,50.22
2017-09-27T10:55:05.347Z,52.50
2017-09-27T10:56:08.579Z,44.53
2017-09-27T10:57:11.809Z,56.75
2017-09-27T10:58:15.802Z,49.15
2017-09-27T10:59:18.295Z,43.75
2017-09-27T11:00:20.850Z,50.67
2017-09-27T11:01:23.328Z,48.70
2017-09-27T11:02:25.819Z,47.47
2017-09-27T11:03:28.308Z,47.85
2017-09-27T11:04:31.569Z,45.78
2017-09-27T11:05:34.095Z,43.33
2017-09-27T11:06:37.314Z,38.60
2017-09-27T11:07:39.828Z,50.17
2017-09-27T11:08:42.329Z,43.83
2017-09-27T11:09:44.831Z,49.00
2017-09-27T11:10:47.322Z,39.20
2017-09-27T11:11:50.550Z,46.08
2017-09-27T11:12:53.106Z,53.45
2017-09-27T11:13:55.635Z,50.92
2017-09-27T11:14:58.723Z,47.80
2017-09-27T11:16:01.234Z,51.78
2017-09-27T11:17:03.839Z,51.10
2017-09-27T11:18:06.345Z,56.45
2017-09-27T11:19:09.756Z,55.35
2017-09-27T11:20:12.231Z,49.70
2017-09-27T11:21:14.731Z,54.10
2017-09-27T11:22:18.002Z,58.65
2017-09-27T11:23:20.471Z,43.10
2017-09-27T11:24:22.942Z,45.63
2017-09-27T11:25:25.424Z,55.03
2017-09-27T11:26:27.921Z,43.20
2017-09-27T11:27:30.415Z,47.05
2017-09-27T11:28:33.671Z,55.30
2017-09-27T11:29:36.196Z,48.78
2017-09-27T11:30:38.710Z,45.58
2017-09-27T11:31:41.193Z,48.65
2017-09-27T11:32:43.667Z,48.72
2017-09-27T11:33:46.201Z,40.42
2017-09-27T11:34:48.762Z,45.08
2017-09-27T11:35:51.230Z,40.97
2017-09-27T11:36:53.756Z,40.33
2017-09-27T11:37:56.219Z,40.75
2017-09-27T11:38:58.724Z,42.05
2017-09-27T11:40:01.239Z,46.25
2017-09-27T11:41:03.703Z,43.58
2017-09-27T11:42:06.176Z,37.22
2017-09-27T11:43:09.437Z,39.45
2017-09-27T11:44:11.959Z,35.75
2017-09-27T11:45:14.442Z,43.03
2017-09-27T11:46:16.935Z,39.55
2017-09-27T11:47:19.408Z,37.05
2017-09-27T11:48:21.950Z,43.10
2017-09-27T11:49:25.193Z,32.70
2017-09-27T11:50:27.729Z,31.85
2017-09-27T11:51:30.221Z,43.20
2017-09-27T11:52:32.699Z,32.40
2017-09-27T11:53:35.220Z,40.45
2017-09-27T11:54:38.465Z,36.92
2017-09-27T11:55:40.968Z,37.85
2017-09-27T11:56:43.435Z,33.35
2017-09-27T11:57:45.908Z,30.42
2017-09-27T11:58:49.256Z,30.52
2017-09-27T11:59:52.481Z,37.92
2017-09-27T12:00:55.743Z,33.42
2017-09-27T12:01:59.006Z,34.97
2017-09-27T12:03:01.492Z,34.85
2017-09-27T12:04:04.722Z,40.72
2017-09-27T12:05:07.262Z,37.38
2017-09-27T12:06:10.090Z,36.95
2017-09-27T12:07:13.359Z,33.45
2017-09-27T12:08:15.815Z,35.78
2017-09-27T12:09:18.274Z,32.35
2017-09-27T12:10:20.836Z,40.63
2017-09-27T12:11:23.302Z,32.15
2017-09-27T12:12:25.793Z,37.05
2017-09-27T12:13:28.284Z,35.45
2017-09-27T12:14:31.574Z,33.25
2017-09-27T12:15:34.053Z,36.95
2017-09-27T12:16:36.538Z,50.88
2017-09-27T12:17:39.036Z,30.20
2017-09-27T12:18:41.526Z,38.95
2017-09-27T12:19:44.774Z,33.67
2017-09-27T12:20:48.035Z,37.47
2017-09-27T12:21:50.522Z,36.92
2017-09-27T12:22:52.983Z,31.98
2017-09-27T12:23:55.444Z,32.17
2017-09-27T12:24:57.962Z,32.03
2017-09-27T12:26:00.494Z,33.60
2017-09-27T12:27:02.947Z,32.72
2017-09-27T12:28:05.510Z,35.75
2017-09-27T12:29:07.978Z,31.85
2017-09-27T12:30:10.443Z,38.17
2017-09-27T12:31:13.704Z,36.17
2017-09-27T12:32:16.233Z,36.35
2017-09-27T12:33:18.711Z,31.48
2017-09-27T12:34:21.274Z,42.65
2017-09-27T12:35:24.524Z,35.45
2017-09-27T12:36:27.819Z,36.08
2017-09-27T12:37:30.406Z,36.60
2017-09-27T12:38:32.875Z,32.40
2017-09-27T12:39:35.340Z,35.63
2017-09-27T12:40:38.564Z,32.40
2017-09-27T12:41:41.055Z,33.85
2017-09-27T12:42:43.528Z,35.97
2017-09-27T12:43:46.792Z,32.80
2017-09-27T12:44:49.263Z,38.42
2017-09-27T12:45:52.658Z,32.53
2017-09-27T12:46:55.131Z,28.75
2017-09-27T12:47:57.598Z,35.35
2017-09-27T12:49:00.844Z,35.63
2017-09-27T12:50:03.346Z,29.17
2017-09-27T12:51:06.569Z,25.50
2017-09-27T12:52:09.151Z,32.72
2017-09-27T12:53:11.722Z,33.38
2017-09-27T12:54:14.279Z,32.33
2017-09-27T12:55:17.538Z,33.33
2017-09-27T12:56:20.016Z,33.58
2017-09-27T12:57:22.585Z,39.90
2017-09-27T12:58:25.064Z,35.70
2017-09-27T12:59:27.624Z,38.42
2017-09-27T13:00:30.996Z,41.00
2017-09-27T13:01:33.489Z,36.05
2017-09-27T13:02:36.750Z,31.33
2017-09-27T13:03:39.218Z,33.22
2017-09-27T13:04:41.692Z,29.25
2017-09-27T13:05:44.946Z,45.75
2017-09-27T13:06:47.451Z,28.77
2017-09-27T13:07:50.805Z,37.95
2017-09-27T13:08:54.042Z,36.97